sensor_id;sensor_type;location;lat;lon;timestamp;pressure;altitude;pressure_sealevel;temperature;humidity
4767;BME280;2397;53.576;9.746;2023-02-20T00:00:01;102025.94;;;4.10;100.00
4767;BME280;2397;53.576;9.746;2023-02-20T00:02:27;102004.63;;;4.11;100.00
4767;BME280;2397;53.576;9.746;2023-02-20T00:04:55;101997.75;;;4.10;100.00
4767;BME280;2397;53.576;9.746;2023-02-20T00:07:22;101988.38;;;4.11;100.00
4767;BME280;2397;53.576;9.746;2023-02-20T00:09:48;101988.47;;;4.12;100.00
4767;BME280;2397;53.576;9.746;2023-02-20T00:12:15;101989.34;;;4.13;100.00
4767;BME280;2397;53.576;9.746;2023-02-20T00:14:41;101980.00;;;4.13;100.00
4767;BME280;2397;53.576;9.746;2023-02-20T00:17:07;101975.66;;;4.12;100.00
4767;BME280;2397;53.576;9.746;2023-02-20T00:19:34;101967.38;;;4.16;100.00
4767;BME280;2397;53.576;9.746;2023-02-20T00:22:00;101953.75;;;4.17;100.00
4767;BME280;2397;53.576;9.746;2023-02-20T00:24:26;101945.34;;;4.20;100.00
4767;BME280;2397;53.576;9.746;2023-02-20T00:26:53;101939.28;;;4.18;100.00
4767;BME280;2397;53.576;9.746;2023-02-20T00:29:21;101932.38;;;4.17;100.00
4767;BME280;2397;53.576;9.746;2023-02-20T00:31:53;101929.72;;;4.15;100.00
4767;BME280;2397;53.576;9.746;2023-02-20T00:34:21;101914.34;;;4.15;100.00
4767;BME280;2397;53.576;9.746;2023-02-20T00:36:49;101893.22;;;4.19;100.00
4767;BME280;2397;53.576;9.746;2023-02-20T00:39:16;101891.34;;;4.17;100.00
4767;BME280;2397;53.576;9.746;2023-02-20T00:41:42;101888.88;;;4.18;100.00
4767;BME280;2397;53.576;9.746;2023-02-20T00:44:08;101896.56;;;4.18;100.00
4767;BME280;2397;53.576;9.746;2023-02-20T00:46:35;101884.75;;;4.20;100.00
4767;BME280;2397;53.576;9.746;2023-02-20T00:49:02;101879.50;;;4.19;100.00
4767;BME280;2397;53.576;9.746;2023-02-20T00:51:28;101863.25;;;4.18;100.00
4767;BME280;2397;53.576;9.746;2023-02-20T00:53:56;101860.69;;;4.18;100.00
4767;BME280;2397;53.576;9.746;2023-02-20T00:56:22;101861.13;;;4.26;100.00
4767;BME280;2397;53.576;9.746;2023-02-20T00:58:49;101848.97;;;4.22;100.00
4767;BME280;2397;53.576;9.746;2023-02-20T01:01:15;101842.06;;;4.21;100.00
4767;BME280;2397;53.576;9.746;2023-02-20T01:03:42;101846.41;;;4.22;100.00
4767;BME280;2397;53.576;9.746;2023-02-20T01:06:09;101850.00;;;4.26;100.00
4767;BME280;2397;53.576;9.746;2023-02-20T01:08:36;101843.34;;;4.29;100.00
4767;BME280;2397;53.576;9.746;2023-02-20T01:11:02;101847.69;;;4.30;100.00
4767;BME280;2397;53.576;9.746;2023-02-20T01:13:29;101857.06;;;4.30;100.00
4767;BME280;2397;53.576;9.746;2023-02-20T01:15:55;101846.00;;;4.31;100.00
4767;BME280;2397;53.576;9.746;2023-02-20T01:18:21;101839.22;;;4.31;100.00
4767;BME280;2397;53.576;9.746;2023-02-20T01:20:48;101837.69;;;4.35;100.00
4767;BME280;2397;53.576;9.746;2023-02-20T01:23:14;101844.59;;;4.36;100.00
4767;BME280;2397;53.576;9.746;2023-02-20T01:25:41;101831.97;;;4.39;100.00
4767;BME280;2397;53.576;9.746;2023-02-20T01:28:07;101820.81;;;4.38;100.00
4767;BME280;2397;53.576;9.746;2023-02-20T01:30:34;101824.44;;;4.42;100.00
4767;BME280;2397;53.576;9.746;2023-02-20T01:33:00;101825.41;;;4.44;100.00
4767;BME280;2397;53.576;9.746;2023-02-20T01:35:27;101814.50;;;4.48;100.00
4767;BME280;2397;53.576;9.746;2023-02-20T01:37:58;101804.19;;;4.47;100.00
4767;BME280;2397;53.576;9.746;2023-02-20T01:40:26;101806.13;;;4.51;100.00
4767;BME280;2397;53.576;9.746;2023-02-20T01:42:53;101791.28;;;4.45;100.00
4767;BME280;2397;53.576;9.746;2023-02-20T01:47:53;101768.69;;;4.54;100.00
4767;BME280;2397;53.576;9.746;2023-02-20T01:50:24;101781.50;;;4.54;100.00
4767;BME280;2397;53.576;9.746;2023-02-20T01:52:54;101773.19;;;4.58;100.00
4767;BME280;2397;53.576;9.746;2023-02-20T01:55:29;101755.16;;;4.57;100.00
4767;BME280;2397;53.576;9.746;2023-02-20T01:58:03;101749.94;;;4.55;100.00
4767;BME280;2397;53.576;9.746;2023-02-20T02:00:32;101737.22;;;4.57;100.00
4767;BME280;2397;53.576;9.746;2023-02-20T02:03:04;101725.47;;;4.61;100.00
4767;BME280;2397;53.576;9.746;2023-02-20T02:05:31;101720.97;;;4.56;100.00
4767;BME280;2397;53.576;9.746;2023-02-20T02:08:00;101710.06;;;4.61;100.00
4767;BME280;2397;53.576;9.746;2023-02-20T02:10:38;101694.59;;;4.59;100.00
4767;BME280;2397;53.576;9.746;2023-02-20T02:13:09;101705.03;;;4.62;100.00
4767;BME280;2397;53.576;9.746;2023-02-20T02:15:36;101706.13;;;4.67;100.00
4767;BME280;2397;53.576;9.746;2023-02-20T02:18:15;101706.06;;;4.66;100.00
4767;BME280;2397;53.576;9.746;2023-02-20T02:38:24;101719.34;;;4.75;100.00
4767;BME280;2397;53.576;9.746;2023-02-20T02:44:14;101701.00;;;4.84;100.00
4767;BME280;2397;53.576;9.746;2023-02-20T02:46:49;101694.84;;;4.80;100.00
4767;BME280;2397;53.576;9.746;2023-02-20T02:49:26;101680.63;;;4.87;100.00
4767;BME280;2397;53.576;9.746;2023-02-20T02:51:56;101672.69;;;4.82;100.00
4767;BME280;2397;53.576;9.746;2023-02-20T02:54:26;101674.63;;;4.86;100.00
4767;BME280;2397;53.576;9.746;2023-02-20T02:59:42;101676.56;;;4.90;100.00
4767;BME280;2397;53.576;9.746;2023-02-20T03:02:12;101686.03;;;4.91;100.00
4767;BME280;2397;53.576;9.746;2023-02-20T03:04:41;101686.25;;;4.96;100.00
4767;BME280;2397;53.576;9.746;2023-02-20T03:07:13;101683.69;;;4.96;100.00
4767;BME280;2397;53.576;9.746;2023-02-20T03:09:45;101673.44;;;4.96;100.00
4767;BME280;2397;53.576;9.746;2023-02-20T03:12:14;101660.75;;;4.99;100.00
4767;BME280;2397;53.576;9.746;2023-02-20T03:14:50;101654.88;;;5.02;100.00
4767;BME280;2397;53.576;9.746;2023-02-20T03:17:42;101657.56;;;5.03;100.00
4767;BME280;2397;53.576;9.746;2023-02-20T03:20:15;101670.94;;;4.98;100.00
4767;BME280;2397;53.576;9.746;2023-02-20T03:22:55;101668.47;;;4.99;100.00
4767;BME280;2397;53.576;9.746;2023-02-20T03:25:30;101680.53;;;5.02;100.00
4767;BME280;2397;53.576;9.746;2023-02-20T03:28:10;101669.72;;;5.07;100.00
4767;BME280;2397;53.576;9.746;2023-02-20T03:30:49;101675.75;;;5.08;100.00
4767;BME280;2397;53.576;9.746;2023-02-20T03:33:21;101664.81;;;5.12;100.00
4767;BME280;2397;53.576;9.746;2023-02-20T03:36:12;101674.13;;;5.10;100.00
4767;BME280;2397;53.576;9.746;2023-02-20T03:39:05;101657.19;;;5.14;100.00
4767;BME280;2397;53.576;9.746;2023-02-20T03:41:52;101625.38;;;5.10;100.00
4767;BME280;2397;53.576;9.746;2023-02-20T03:44:39;101621.34;;;5.15;100.00
4767;BME280;2397;53.576;9.746;2023-02-20T03:47:08;101631.44;;;5.12;100.00
4767;BME280;2397;53.576;9.746;2023-02-20T03:49:40;101651.34;;;5.16;100.00
4767;BME280;2397;53.576;9.746;2023-02-20T03:52:08;101651.41;;;5.18;100.00
4767;BME280;2397;53.576;9.746;2023-02-20T03:54:35;101646.66;;;5.25;100.00
4767;BME280;2397;53.576;9.746;2023-02-20T03:57:29;101644.97;;;5.26;100.00
4767;BME280;2397;53.576;9.746;2023-02-20T04:00:00;101655.91;;;5.22;100.00
4767;BME280;2397;53.576;9.746;2023-02-20T04:02:36;101643.13;;;5.23;100.00
4767;BME280;2397;53.576;9.746;2023-02-20T04:05:09;101630.38;;;5.25;100.00
4767;BME280;2397;53.576;9.746;2023-02-20T04:07:46;101629.44;;;5.23;100.00
4767;BME280;2397;53.576;9.746;2023-02-20T04:10:20;101625.97;;;5.22;100.00
4767;BME280;2397;53.576;9.746;2023-02-20T04:12:48;101609.53;;;5.19;100.00
4767;BME280;2397;53.576;9.746;2023-02-20T04:15:16;101613.19;;;5.24;100.00
4767;BME280;2397;53.576;9.746;2023-02-20T04:17:48;101600.22;;;5.21;100.00
4767;BME280;2397;53.576;9.746;2023-02-20T04:20:16;101602.06;;;5.23;100.00
4767;BME280;2397;53.576;9.746;2023-02-20T04:22:45;101602.78;;;5.21;100.00
4767;BME280;2397;53.576;9.746;2023-02-20T04:25:24;101599.56;;;5.25;100.00
4767;BME280;2397;53.576;9.746;2023-02-20T04:27:55;101591.81;;;5.23;100.00
4767;BME280;2397;53.576;9.746;2023-02-20T04:30:22;101591.81;;;5.23;100.00
4767;BME280;2397;53.576;9.746;2023-02-20T04:32:49;101580.59;;;5.21;100.00
4767;BME280;2397;53.576;9.746;2023-02-20T04:35:17;101585.56;;;5.18;100.00
4767;BME280;2397;53.576;9.746;2023-02-20T04:37:43;101586.81;;;5.26;100.00
4767;BME280;2397;53.576;9.746;2023-02-20T04:40:11;101574.69;;;5.24;100.00
4767;BME280;2397;53.576;9.746;2023-02-20T04:42:38;101575.81;;;5.29;100.00
4767;BME280;2397;53.576;9.746;2023-02-20T04:45:05;101560.19;;;5.24;100.00
4767;BME280;2397;53.576;9.746;2023-02-20T04:47:31;101551.38;;;5.19;100.00
4767;BME280;2397;53.576;9.746;2023-02-20T04:49:58;101558.44;;;5.23;100.00
4767;BME280;2397;53.576;9.746;2023-02-20T04:52:24;101553.22;;;5.22;100.00
4767;BME280;2397;53.576;9.746;2023-02-20T04:54:50;101552.34;;;5.21;100.00
4767;BME280;2397;53.576;9.746;2023-02-20T04:57:17;101546.78;;;5.30;100.00
4767;BME280;2397;53.576;9.746;2023-02-20T04:59:44;101551.78;;;5.27;100.00
4767;BME280;2397;53.576;9.746;2023-02-20T05:02:10;101549.28;;;5.28;100.00
4767;BME280;2397;53.576;9.746;2023-02-20T05:04:37;101561.13;;;5.26;100.00
4767;BME280;2397;53.576;9.746;2023-02-20T05:07:03;101558.66;;;5.28;100.00
4767;BME280;2397;53.576;9.746;2023-02-20T05:09:29;101582.56;;;5.27;100.00
4767;BME280;2397;53.576;9.746;2023-02-20T05:11:57;101564.00;;;5.33;100.00
4767;BME280;2397;53.576;9.746;2023-02-20T05:14:23;101568.47;;;5.37;100.00
4767;BME280;2397;53.576;9.746;2023-02-20T05:16:49;101552.78;;;5.31;100.00
4767;BME280;2397;53.576;9.746;2023-02-20T05:19:18;101540.75;;;5.30;100.00
4767;BME280;2397;53.576;9.746;2023-02-20T05:21:45;101546.72;;;5.28;100.00
4767;BME280;2397;53.576;9.746;2023-02-20T05:24:31;101538.19;;;5.30;100.00
4767;BME280;2397;53.576;9.746;2023-02-20T05:26:58;101520.97;;;5.27;100.00
4767;BME280;2397;53.576;9.746;2023-02-20T05:29:24;101511.84;;;5.34;100.00
4767;BME280;2397;53.576;9.746;2023-02-20T05:31:50;101505.09;;;5.36;100.00
4767;BME280;2397;53.576;9.746;2023-02-20T05:34:17;101497.47;;;5.37;100.00
4767;BME280;2397;53.576;9.746;2023-02-20T05:36:46;101497.47;;;5.37;100.00
4767;BME280;2397;53.576;9.746;2023-02-20T05:39:12;101474.59;;;5.42;100.00
4767;BME280;2397;53.576;9.746;2023-02-20T05:41:39;101473.69;;;5.41;100.00
4767;BME280;2397;53.576;9.746;2023-02-20T05:44:05;101477.97;;;5.41;100.00
4767;BME280;2397;53.576;9.746;2023-02-20T05:46:31;101466.00;;;5.41;100.00
4767;BME280;2397;53.576;9.746;2023-02-20T05:48:58;101467.81;;;5.44;100.00
4767;BME280;2397;53.576;9.746;2023-02-20T05:51:27;101446.28;;;5.40;100.00
4767;BME280;2397;53.576;9.746;2023-02-20T05:53:54;101443.47;;;5.36;100.00
4767;BME280;2397;53.576;9.746;2023-02-20T05:56:21;101450.66;;;5.43;100.00
4767;BME280;2397;53.576;9.746;2023-02-20T05:58:48;101447.16;;;5.41;100.00
4767;BME280;2397;53.576;9.746;2023-02-20T06:01:28;101447.94;;;5.40;100.00
4767;BME280;2397;53.576;9.746;2023-02-20T06:03:55;101448.00;;;5.41;100.00
4767;BME280;2397;53.576;9.746;2023-02-20T06:06:22;101436.88;;;5.41;100.00
4767;BME280;2397;53.576;9.746;2023-02-20T06:08:48;101429.97;;;5.40;100.00
4767;BME280;2397;53.576;9.746;2023-02-20T06:11:15;101429.97;;;5.40;100.00
4767;BME280;2397;53.576;9.746;2023-02-20T06:13:43;101429.97;;;5.40;100.00
4767;BME280;2397;53.576;9.746;2023-02-20T06:16:10;101428.06;;;5.36;100.00
4767;BME280;2397;53.576;9.746;2023-02-20T06:18:39;101436.75;;;5.38;100.00
4767;BME280;2397;53.576;9.746;2023-02-20T06:21:10;101434.97;;;5.37;100.00
4767;BME280;2397;53.576;9.746;2023-02-20T06:23:37;101437.59;;;5.38;100.00
4767;BME280;2397;53.576;9.746;2023-02-20T06:26:05;101440.25;;;5.40;100.00
4767;BME280;2397;53.576;9.746;2023-02-20T06:28:32;101435.19;;;5.41;100.00
4767;BME280;2397;53.576;9.746;2023-02-20T06:30:59;101426.28;;;5.53;100.00
4767;BME280;2397;53.576;9.746;2023-02-20T06:33:27;101445.53;;;5.62;100.00
4767;BME280;2397;53.576;9.746;2023-02-20T06:35:54;101443.72;;;5.60;100.00
4767;BME280;2397;53.576;9.746;2023-02-20T06:38:20;101443.81;;;5.61;100.00
4767;BME280;2397;53.576;9.746;2023-02-20T06:40:47;101447.31;;;5.63;100.00
4767;BME280;2397;53.576;9.746;2023-02-20T06:43:13;101454.88;;;5.60;100.00
4767;BME280;2397;53.576;9.746;2023-02-20T06:45:40;101463.69;;;5.66;100.00
4767;BME280;2397;53.576;9.746;2023-02-20T06:48:06;101449.94;;;5.65;100.00
4767;BME280;2397;53.576;9.746;2023-02-20T06:50:33;101452.56;;;5.67;100.00
4767;BME280;2397;53.576;9.746;2023-02-20T06:52:59;101449.88;;;5.63;100.00
4767;BME280;2397;53.576;9.746;2023-02-20T06:55:25;101449.22;;;5.68;100.00
4767;BME280;2397;53.576;9.746;2023-02-20T06:57:52;101451.91;;;5.71;100.00
4767;BME280;2397;53.576;9.746;2023-02-20T07:00:18;101445.13;;;5.73;100.00
4767;BME280;2397;53.576;9.746;2023-02-20T07:02:45;101442.81;;;5.77;100.00
4767;BME280;2397;53.576;9.746;2023-02-20T07:05:11;101441.16;;;5.79;100.00
4767;BME280;2397;53.576;9.746;2023-02-20T07:07:38;101450.72;;;5.82;100.00
4767;BME280;2397;53.576;9.746;2023-02-20T07:10:05;101453.28;;;5.82;100.00
4767;BME280;2397;53.576;9.746;2023-02-20T07:12:32;101448.00;;;5.79;100.00
4767;BME280;2397;53.576;9.746;2023-02-20T07:14:59;101450.56;;;5.79;100.00
4767;BME280;2397;53.576;9.746;2023-02-20T07:17:25;101452.50;;;5.85;100.00
4767;BME280;2397;53.576;9.746;2023-02-20T07:19:51;101447.44;;;5.86;100.00
4767;BME280;2397;53.576;9.746;2023-02-20T07:22:18;101442.47;;;5.89;100.00
4767;BME280;2397;53.576;9.746;2023-02-20T07:24:49;101449.53;;;5.95;100.00
4767;BME280;2397;53.576;9.746;2023-02-20T07:27:15;101446.09;;;5.94;100.00
4767;BME280;2397;53.576;9.746;2023-02-20T07:29:47;101454.75;;;5.96;100.00
4767;BME280;2397;53.576;9.746;2023-02-20T07:32:15;101454.94;;;6.00;100.00
4767;BME280;2397;53.576;9.746;2023-02-20T07:34:46;101449.03;;;6.02;100.00
4767;BME280;2397;53.576;9.746;2023-02-20T07:37:29;101449.78;;;6.00;100.00
4767;BME280;2397;53.576;9.746;2023-02-20T07:39:56;101439.78;;;6.06;100.00
4767;BME280;2397;53.576;9.746;2023-02-20T07:42:22;101413.81;;;6.00;100.00
4767;BME280;2397;53.576;9.746;2023-02-20T07:44:49;101422.47;;;6.02;100.00
4767;BME280;2397;53.576;9.746;2023-02-20T07:47:15;101424.47;;;6.09;100.00
4767;BME280;2397;53.576;9.746;2023-02-20T07:49:42;101426.91;;;6.06;100.00
4767;BME280;2397;53.576;9.746;2023-02-20T07:52:09;101434.69;;;6.07;100.00
4767;BME280;2397;53.576;9.746;2023-02-20T07:54:35;101421.97;;;6.10;100.00
4767;BME280;2397;53.576;9.746;2023-02-20T07:57:02;101408.38;;;6.13;100.00
4767;BME280;2397;53.576;9.746;2023-02-20T07:59:28;101411.03;;;6.14;100.00
4767;BME280;2397;53.576;9.746;2023-02-20T08:01:55;101393.94;;;6.17;100.00
4767;BME280;2397;53.576;9.746;2023-02-20T08:04:21;101397.38;;;6.17;100.00
4767;BME280;2397;53.576;9.746;2023-02-20T08:06:48;101391.31;;;6.15;100.00
4767;BME280;2397;53.576;9.746;2023-02-20T08:09:14;101393.22;;;6.19;100.00
4767;BME280;2397;53.576;9.746;2023-02-20T08:11:40;101366.53;;;6.17;100.00
4767;BME280;2397;53.576;9.746;2023-02-20T08:14:07;101380.34;;;6.19;100.00
4767;BME280;2397;53.576;9.746;2023-02-20T08:16:33;101374.59;;;6.25;100.00
4767;BME280;2397;53.576;9.746;2023-02-20T08:19:00;101378.97;;;6.27;100.00
4767;BME280;2397;53.576;9.746;2023-02-20T08:21:27;101382.63;;;6.32;100.00
4767;BME280;2397;53.576;9.746;2023-02-20T08:23:53;101379.22;;;6.33;100.00
4767;BME280;2397;53.576;9.746;2023-02-20T08:26:20;101367.31;;;6.36;100.00
4767;BME280;2397;53.576;9.746;2023-02-20T08:28:48;101369.81;;;6.34;100.00
4767;BME280;2397;53.576;9.746;2023-02-20T08:31:15;101364.06;;;6.40;100.00
4767;BME280;2397;53.576;9.746;2023-02-20T08:33:57;101365.66;;;6.38;100.00
4767;BME280;2397;53.576;9.746;2023-02-20T08:36:23;101357.22;;;6.40;100.00
4767;BME280;2397;53.576;9.746;2023-02-20T08:38:49;101356.47;;;6.43;100.00
4767;BME280;2397;53.576;9.746;2023-02-20T08:41:16;101344.72;;;6.49;100.00
4767;BME280;2397;53.576;9.746;2023-02-20T08:43:43;101345.72;;;6.53;100.00
4767;BME280;2397;53.576;9.746;2023-02-20T08:46:10;101347.47;;;6.54;100.00
4767;BME280;2397;53.576;9.746;2023-02-20T08:48:37;101336.47;;;6.58;100.00
4767;BME280;2397;53.576;9.746;2023-02-20T08:51:05;101343.34;;;6.58;100.00
4767;BME280;2397;53.576;9.746;2023-02-20T08:53:33;101332.09;;;6.56;100.00
4767;BME280;2397;53.576;9.746;2023-02-20T08:55:59;101326.88;;;6.54;100.00
4767;BME280;2397;53.576;9.746;2023-02-20T08:58:26;101334.03;;;6.61;100.00
4767;BME280;2397;53.576;9.746;2023-02-20T09:00:52;101326.44;;;6.64;100.00
4767;BME280;2397;53.576;9.746;2023-02-20T09:03:20;101323.16;;;6.68;100.00
4767;BME280;2397;53.576;9.746;2023-02-20T09:05:46;101331.81;;;6.71;100.00
4767;BME280;2397;53.576;9.746;2023-02-20T09:08:13;101320.47;;;6.65;100.00
4767;BME280;2397;53.576;9.746;2023-02-20T09:10:40;101318.72;;;6.64;100.00
4767;BME280;2397;53.576;9.746;2023-02-20T09:13:07;101323.91;;;6.66;100.00
4767;BME280;2397;53.576;9.746;2023-02-20T09:15:33;101312.75;;;6.65;100.00
4767;BME280;2397;53.576;9.746;2023-02-20T09:18:11;101321.28;;;6.64;100.00
4767;BME280;2397;53.576;9.746;2023-02-20T09:20:38;101318.78;;;6.66;100.00
4767;BME280;2397;53.576;9.746;2023-02-20T09:23:06;101313.00;;;6.72;100.00
4767;BME280;2397;53.576;9.746;2023-02-20T09:25:32;101311.16;;;6.69;100.00
4767;BME280;2397;53.576;9.746;2023-02-20T09:27:59;101313.94;;;6.74;100.00
4767;BME280;2397;53.576;9.746;2023-02-20T09:30:25;101306.34;;;6.77;100.00
4767;BME280;2397;53.576;9.746;2023-02-20T09:32:52;101313.16;;;6.76;100.00
4767;BME280;2397;53.576;9.746;2023-02-20T09:35:23;101305.50;;;6.78;100.00
4767;BME280;2397;53.576;9.746;2023-02-20T09:37:51;101307.38;;;6.82;100.00
4767;BME280;2397;53.576;9.746;2023-02-20T09:40:21;101290.44;;;6.87;100.00
4767;BME280;2397;53.576;9.746;2023-02-20T09:45:21;101285.41;;;6.90;100.00
4767;BME280;2397;53.576;9.746;2023-02-20T09:48:05;101288.13;;;6.95;100.00
4767;BME280;2397;53.576;9.746;2023-02-20T09:50:41;101284.97;;;7.02;100.00
4767;BME280;2397;53.576;9.746;2023-02-20T09:56:19;101279.19;;;7.08;100.00
4767;BME280;2397;53.576;9.746;2023-02-20T09:58:53;101275.69;;;7.07;100.00
4767;BME280;2397;53.576;9.746;2023-02-20T10:01:25;101277.53;;;7.10;100.00
4767;BME280;2397;53.576;9.746;2023-02-20T10:03:57;101287.94;;;7.13;100.00
4767;BME280;2397;53.576;9.746;2023-02-20T10:06:27;101294.03;;;7.16;100.00
4767;BME280;2397;53.576;9.746;2023-02-20T10:08:55;101289.03;;;7.19;100.00
4767;BME280;2397;53.576;9.746;2023-02-20T10:11:38;101301.28;;;7.27;100.00
4767;BME280;2397;53.576;9.746;2023-02-20T10:14:33;101314.22;;;7.28;100.00
4767;BME280;2397;53.576;9.746;2023-02-20T10:17:17;101300.75;;;7.35;100.00
4767;BME280;2397;53.576;9.746;2023-02-20T10:20:02;101295.59;;;7.35;100.00
4767;BME280;2397;53.576;9.746;2023-02-20T10:22:38;101306.94;;;7.41;100.00
4767;BME280;2397;53.576;9.746;2023-02-20T10:25:08;101295.94;;;7.45;100.00
4767;BME280;2397;53.576;9.746;2023-02-20T10:27:50;101296.09;;;7.49;100.00
4767;BME280;2397;53.576;9.746;2023-02-20T10:30:26;101285.78;;;7.49;100.00
4767;BME280;2397;53.576;9.746;2023-02-20T10:33:16;101277.28;;;7.52;100.00
4767;BME280;2397;53.576;9.746;2023-02-20T10:38:36;101267.88;;;7.52;100.00
4767;BME280;2397;53.576;9.746;2023-02-20T10:41:12;101274.63;;;7.50;100.00
4767;BME280;2397;53.576;9.746;2023-02-20T10:43:47;101279.13;;;7.56;100.00
4767;BME280;2397;53.576;9.746;2023-02-20T10:46:19;101285.19;;;7.56;100.00
4767;BME280;2397;53.576;9.746;2023-02-20T10:48:52;101278.41;;;7.60;100.00
4767;BME280;2397;53.576;9.746;2023-02-20T10:51:36;101270.91;;;7.66;100.00
4767;BME280;2397;53.576;9.746;2023-02-20T10:59:09;101284.81;;;7.71;100.00
4767;BME280;2397;53.576;9.746;2023-02-20T11:01:37;101301.22;;;7.73;100.00
4767;BME280;2397;53.576;9.746;2023-02-20T11:04:12;101280.53;;;7.72;100.00
4767;BME280;2397;53.576;9.746;2023-02-20T11:06:45;101290.09;;;7.74;100.00
4767;BME280;2397;53.576;9.746;2023-02-20T11:09:15;101308.94;;;7.73;100.00
4767;BME280;2397;53.576;9.746;2023-02-20T11:11:44;101275.50;;;7.75;100.00
4767;BME280;2397;53.576;9.746;2023-02-20T11:14:15;101281.63;;;7.79;100.00
4767;BME280;2397;53.576;9.746;2023-02-20T11:19:45;101273.25;;;7.86;100.00
4767;BME280;2397;53.576;9.746;2023-02-20T11:22:14;101283.56;;;7.86;100.00
4767;BME280;2397;53.576;9.746;2023-02-20T11:24:42;101282.75;;;7.87;100.00
4767;BME280;2397;53.576;9.746;2023-02-20T11:27:18;101269.06;;;7.88;100.00
4767;BME280;2397;53.576;9.746;2023-02-20T11:30:00;101267.28;;;7.87;100.00
4767;BME280;2397;53.576;9.746;2023-02-20T11:32:35;101262.47;;;7.98;100.00
4767;BME280;2397;53.576;9.746;2023-02-20T11:37:44;101265.38;;;8.07;100.00
4767;BME280;2397;53.576;9.746;2023-02-20T11:40:29;101251.81;;;8.14;100.00
4767;BME280;2397;53.576;9.746;2023-02-20T11:46:14;101238.34;;;8.23;100.00
4767;BME280;2397;53.576;9.746;2023-02-20T11:49:07;101254.66;;;8.22;100.00
4767;BME280;2397;53.576;9.746;2023-02-20T11:54:24;101244.75;;;8.36;100.00
4767;BME280;2397;53.576;9.746;2023-02-20T11:56:58;101218.22;;;8.40;100.00
4767;BME280;2397;53.576;9.746;2023-02-20T11:59:38;101232.84;;;8.39;100.00
4767;BME280;2397;53.576;9.746;2023-02-20T12:04:43;101225.31;;;8.46;100.00
4767;BME280;2397;53.576;9.746;2023-02-20T12:07:25;101219.19;;;8.43;100.00
4767;BME280;2397;53.576;9.746;2023-02-20T12:09:55;101231.22;;;8.43;100.00
4767;BME280;2397;53.576;9.746;2023-02-20T12:12:26;101216.72;;;8.47;100.00
4767;BME280;2397;53.576;9.746;2023-02-20T12:14:53;101218.31;;;8.43;100.00
4767;BME280;2397;53.576;9.746;2023-02-20T12:17:29;101207.31;;;8.47;100.00
4767;BME280;2397;53.576;9.746;2023-02-20T12:20:19;101206.38;;;8.45;100.00
4767;BME280;2397;53.576;9.746;2023-02-20T12:23:08;101198.66;;;8.47;100.00
4767;BME280;2397;53.576;9.746;2023-02-20T12:32:02;101215.13;;;8.50;100.00
4767;BME280;2397;53.576;9.746;2023-02-20T12:45:59;101190.19;;;8.51;100.00
4767;BME280;2397;53.576;9.746;2023-02-20T12:51:56;101192.94;;;8.57;100.00
4767;BME280;2397;53.576;9.746;2023-02-20T12:54:59;101193.84;;;8.57;100.00
4767;BME280;2397;53.576;9.746;2023-02-20T12:57:45;101205.03;;;8.58;100.00
4767;BME280;2397;53.576;9.746;2023-02-20T13:00:35;101205.75;;;8.54;100.00
4767;BME280;2397;53.576;9.746;2023-02-20T13:03:08;101197.25;;;8.56;100.00
4767;BME280;2397;53.576;9.746;2023-02-20T13:05:39;101201.63;;;8.59;100.00
4767;BME280;2397;53.576;9.746;2023-02-20T13:08:15;101192.16;;;8.59;100.00
4767;BME280;2397;53.576;9.746;2023-02-20T13:10:51;101188.78;;;8.60;100.00
4767;BME280;2397;53.576;9.746;2023-02-20T13:13:18;101201.81;;;8.65;100.00
4767;BME280;2397;53.576;9.746;2023-02-20T13:15:57;101192.25;;;8.63;100.00
4767;BME280;2397;53.576;9.746;2023-02-20T13:21:05;101189.63;;;8.61;100.00
4767;BME280;2397;53.576;9.746;2023-02-20T13:23:36;101182.84;;;8.63;100.00
4767;BME280;2397;53.576;9.746;2023-02-20T13:28:52;101198.34;;;8.65;100.00
4767;BME280;2397;53.576;9.746;2023-02-20T13:31:22;101205.19;;;8.64;100.00
4767;BME280;2397;53.576;9.746;2023-02-20T13:36:47;101195.63;;;8.60;100.00
4767;BME280;2397;53.576;9.746;2023-02-20T13:47:27;101189.72;;;8.64;100.00
4767;BME280;2397;53.576;9.746;2023-02-20T13:49:56;101204.28;;;8.62;100.00
4767;BME280;2397;53.576;9.746;2023-02-20T13:57:51;101197.53;;;8.67;100.00
4767;BME280;2397;53.576;9.746;2023-02-20T14:00:23;101193.16;;;8.63;100.00
4767;BME280;2397;53.576;9.746;2023-02-20T14:02:50;101182.84;;;8.63;100.00
4767;BME280;2397;53.576;9.746;2023-02-20T14:05:29;101188.16;;;8.69;100.00
4767;BME280;2397;53.576;9.746;2023-02-20T14:07:57;101183.69;;;8.64;100.00
4767;BME280;2397;53.576;9.746;2023-02-20T14:10:35;101200.94;;;8.65;100.00
4767;BME280;2397;53.576;9.746;2023-02-20T14:15:44;101198.41;;;8.66;100.00
4767;BME280;2397;53.576;9.746;2023-02-20T14:18:15;101194.16;;;8.68;100.00
4767;BME280;2397;53.576;9.746;2023-02-20T14:20:42;101183.00;;;8.69;100.00
4767;BME280;2397;53.576;9.746;2023-02-20T14:23:23;101181.28;;;8.70;100.00
4767;BME280;2397;53.576;9.746;2023-02-20T14:25:57;101182.19;;;8.72;100.00
4767;BME280;2397;53.576;9.746;2023-02-20T14:28:43;101177.91;;;8.72;100.00
4767;BME280;2397;53.576;9.746;2023-02-20T14:31:23;101182.22;;;8.73;100.00
4767;BME280;2397;53.576;9.746;2023-02-20T14:34:00;101185.78;;;8.77;100.00
4767;BME280;2397;53.576;9.746;2023-02-20T14:36:35;101171.16;;;8.77;100.00
4767;BME280;2397;53.576;9.746;2023-02-20T14:42:00;101184.06;;;8.77;100.00
4767;BME280;2397;53.576;9.746;2023-02-20T14:44:28;101182.47;;;8.81;100.00
4767;BME280;2397;53.576;9.746;2023-02-20T14:47:04;101190.16;;;8.79;100.00
4767;BME280;2397;53.576;9.746;2023-02-20T14:49:33;101184.16;;;8.81;100.00
4767;BME280;2397;53.576;9.746;2023-02-20T14:52:20;101182.50;;;8.83;100.00
4767;BME280;2397;53.576;9.746;2023-02-20T14:54:59;101173.03;;;8.83;100.00
4767;BME280;2397;53.576;9.746;2023-02-20T14:57:27;101192.88;;;8.84;100.00
4767;BME280;2397;53.576;9.746;2023-02-20T15:02:46;101185.09;;;8.83;100.00
4767;BME280;2397;53.576;9.746;2023-02-20T15:05:15;101191.97;;;8.84;100.00
4767;BME280;2397;53.576;9.746;2023-02-20T15:07:44;101180.84;;;8.85;100.00
4767;BME280;2397;53.576;9.746;2023-02-20T15:13:07;101189.41;;;8.84;100.00
4767;BME280;2397;53.576;9.746;2023-02-20T15:15:36;101182.63;;;8.87;100.00